sensor_id;sensor_type;location;lat;lon;timestamp;temperature;humidity
40434;DHT22;26146;51.114;5.654;2022-08-03T00:00:48;21.90;98.10
40434;DHT22;26146;51.114;5.654;2022-08-03T00:04:49;21.90;98.20
40434;DHT22;26146;51.114;5.654;2022-08-03T00:08:50;21.90;98.50
40434;DHT22;26146;51.114;5.654;2022-08-03T00:12:51;21.80;98.80
40434;DHT22;26146;51.114;5.654;2022-08-03T00:16:55;21.90;98.90
40434;DHT22;26146;51.114;5.654;2022-08-03T00:20:56;21.80;99.00
40434;DHT22;26146;51.114;5.654;2022-08-03T00:24:57;21.80;99.00
40434;DHT22;26146;51.114;5.654;2022-08-03T00:28:58;21.80;99.20
40434;DHT22;26146;51.114;5.654;2022-08-03T00:32:59;21.80;99.50
40434;DHT22;26146;51.114;5.654;2022-08-03T00:37:02;21.90;99.50
40434;DHT22;26146;51.114;5.654;2022-08-03T00:41:03;21.70;99.70
40434;DHT22;26146;51.114;5.654;2022-08-03T00:45:07;21.60;99.90
40434;DHT22;26146;51.114;5.654;2022-08-03T00:49:08;21.50;99.90
40434;DHT22;26146;51.114;5.654;2022-08-03T00:53:10;21.40;99.90
40434;DHT22;26146;51.114;5.654;2022-08-03T00:57:14;21.50;99.90
40434;DHT22;26146;51.114;5.654;2022-08-03T01:01:15;21.40;99.90
40434;DHT22;26146;51.114;5.654;2022-08-03T01:05:17;21.30;99.90
40434;DHT22;26146;51.114;5.654;2022-08-03T01:09:31;21.30;99.90
40434;DHT22;26146;51.114;5.654;2022-08-03T01:17:54;21.20;99.90
40434;DHT22;26146;51.114;5.654;2022-08-03T01:30:36;21.00;99.90
40434;DHT22;26146;51.114;5.654;2022-08-03T01:34:44;20.80;99.90
40434;DHT22;26146;51.114;5.654;2022-08-03T01:39:04;20.80;99.90
40434;DHT22;26146;51.114;5.654;2022-08-03T01:43:13;20.70;99.90
40434;DHT22;26146;51.114;5.654;2022-08-03T01:47:19;20.60;99.90
40434;DHT22;26146;51.114;5.654;2022-08-03T01:51:20;20.60;99.90
40434;DHT22;26146;51.114;5.654;2022-08-03T01:55:22;20.50;99.90
40434;DHT22;26146;51.114;5.654;2022-08-03T01:59:25;20.40;99.90
40434;DHT22;26146;51.114;5.654;2022-08-03T02:03:32;20.40;99.90
40434;DHT22;26146;51.114;5.654;2022-08-03T02:07:33;20.40;99.90
40434;DHT22;26146;51.114;5.654;2022-08-03T02:11:36;20.40;99.90
40434;DHT22;26146;51.114;5.654;2022-08-03T02:15:40;20.30;99.90
40434;DHT22;26146;51.114;5.654;2022-08-03T02:19:43;20.30;99.90
40434;DHT22;26146;51.114;5.654;2022-08-03T02:23:44;20.30;99.90
40434;DHT22;26146;51.114;5.654;2022-08-03T02:27:50;20.20;99.90
40434;DHT22;26146;51.114;5.654;2022-08-03T02:31:57;20.10;99.90
40434;DHT22;26146;51.114;5.654;2022-08-03T02:35:59;20.10;99.90
40434;DHT22;26146;51.114;5.654;2022-08-03T02:40:03;20.10;99.90
40434;DHT22;26146;51.114;5.654;2022-08-03T02:44:07;20.00;99.90
40434;DHT22;26146;51.114;5.654;2022-08-03T02:48:09;20.10;99.90
40434;DHT22;26146;51.114;5.654;2022-08-03T02:52:11;20.10;99.90
40434;DHT22;26146;51.114;5.654;2022-08-03T02:56:13;20.00;99.90
40434;DHT22;26146;51.114;5.654;2022-08-03T03:00:15;20.00;99.90
40434;DHT22;26146;51.114;5.654;2022-08-03T03:04:17;19.90;99.90
40434;DHT22;26146;51.114;5.654;2022-08-03T03:08:19;20.00;99.90
40434;DHT22;26146;51.114;5.654;2022-08-03T03:12:21;20.10;99.90
40434;DHT22;26146;51.114;5.654;2022-08-03T03:16:22;20.10;99.90
40434;DHT22;26146;51.114;5.654;2022-08-03T03:20:27;20.10;99.90
40434;DHT22;26146;51.114;5.654;2022-08-03T03:24:29;20.20;99.90
40434;DHT22;26146;51.114;5.654;2022-08-03T03:28:32;20.10;99.90
40434;DHT22;26146;51.114;5.654;2022-08-03T03:32:36;20.10;99.90
40434;DHT22;26146;51.114;5.654;2022-08-03T03:36:39;20.10;99.90
40434;DHT22;26146;51.114;5.654;2022-08-03T03:40:40;20.20;99.90
40434;DHT22;26146;51.114;5.654;2022-08-03T03:44:41;20.30;99.90
40434;DHT22;26146;51.114;5.654;2022-08-03T03:48:43;20.20;99.90
40434;DHT22;26146;51.114;5.654;2022-08-03T03:52:44;20.10;99.90
40434;DHT22;26146;51.114;5.654;2022-08-03T03:56:46;20.10;99.90
40434;DHT22;26146;51.114;5.654;2022-08-03T04:00:46;20.10;99.90
40434;DHT22;26146;51.114;5.654;2022-08-03T04:04:47;20.10;99.90
40434;DHT22;26146;51.114;5.654;2022-08-03T04:09:08;20.10;99.90
40434;DHT22;26146;51.114;5.654;2022-08-03T04:13:36;20.30;99.90
40434;DHT22;26146;51.114;5.654;2022-08-03T04:17:40;20.30;99.90
40434;DHT22;26146;51.114;5.654;2022-08-03T04:21:43;20.50;99.90
40434;DHT22;26146;51.114;5.654;2022-08-03T04:25:48;20.60;99.90
40434;DHT22;26146;51.114;5.654;2022-08-03T04:29:55;20.70;99.90
40434;DHT22;26146;51.114;5.654;2022-08-03T04:33:57;20.60;99.90
40434;DHT22;26146;51.114;5.654;2022-08-03T04:38:02;20.60;99.90
40434;DHT22;26146;51.114;5.654;2022-08-03T04:42:06;20.70;99.90
40434;DHT22;26146;51.114;5.654;2022-08-03T04:46:09;20.80;99.90
40434;DHT22;26146;51.114;5.654;2022-08-03T04:50:11;20.90;99.90
40434;DHT22;26146;51.114;5.654;2022-08-03T04:54:14;20.90;99.90
40434;DHT22;26146;51.114;5.654;2022-08-03T04:58:16;20.90;99.90
40434;DHT22;26146;51.114;5.654;2022-08-03T05:02:17;21.10;99.90
40434;DHT22;26146;51.114;5.654;2022-08-03T05:06:18;21.20;99.90
40434;DHT22;26146;51.114;5.654;2022-08-03T05:10:21;21.20;99.90
40434;DHT22;26146;51.114;5.654;2022-08-03T05:14:22;21.20;99.90
40434;DHT22;26146;51.114;5.654;2022-08-03T05:18:23;21.20;99.90
40434;DHT22;26146;51.114;5.654;2022-08-03T05:22:24;21.20;99.90
40434;DHT22;26146;51.114;5.654;2022-08-03T05:26:28;21.30;99.90
40434;DHT22;26146;51.114;5.654;2022-08-03T05:30:31;21.40;99.90
40434;DHT22;26146;51.114;5.654;2022-08-03T05:34:34;21.50;99.90
40434;DHT22;26146;51.114;5.654;2022-08-03T05:38:38;21.70;99.90
40434;DHT22;26146;51.114;5.654;2022-08-03T05:42:39;21.80;99.90
40434;DHT22;26146;51.114;5.654;2022-08-03T05:46:40;22.00;99.90
40434;DHT22;26146;51.114;5.654;2022-08-03T05:50:41;22.30;99.90
40434;DHT22;26146;51.114;5.654;2022-08-03T05:54:41;22.60;99.90
40434;DHT22;26146;51.114;5.654;2022-08-03T05:58:46;23.00;99.90
40434;DHT22;26146;51.114;5.654;2022-08-03T06:02:50;23.20;99.90
40434;DHT22;26146;51.114;5.654;2022-08-03T06:06:50;23.40;99.50
40434;DHT22;26146;51.114;5.654;2022-08-03T06:10:51;23.70;99.40
40434;DHT22;26146;51.114;5.654;2022-08-03T06:14:52;23.90;98.50
40434;DHT22;26146;51.114;5.654;2022-08-03T06:18:53;24.20;98.10
40434;DHT22;26146;51.114;5.654;2022-08-03T06:22:54;24.30;97.60
40434;DHT22;26146;51.114;5.654;2022-08-03T06:26:57;24.70;97.30
40434;DHT22;26146;51.114;5.654;2022-08-03T06:30:58;24.90;96.80
40434;DHT22;26146;51.114;5.654;2022-08-03T06:34:59;25.00;96.50
40434;DHT22;26146;51.114;5.654;2022-08-03T06:39:01;25.20;96.20
40434;DHT22;26146;51.114;5.654;2022-08-03T06:43:03;25.40;96.00
40434;DHT22;26146;51.114;5.654;2022-08-03T06:47:08;25.50;95.70
40434;DHT22;26146;51.114;5.654;2022-08-03T06:51:09;25.60;95.40
40434;DHT22;26146;51.114;5.654;2022-08-03T06:55:12;25.70;95.20
40434;DHT22;26146;51.114;5.654;2022-08-03T06:59:13;25.80;95.00
40434;DHT22;26146;51.114;5.654;2022-08-03T07:03:16;25.90;94.80
40434;DHT22;26146;51.114;5.654;2022-08-03T07:07:18;26.10;94.60
40434;DHT22;26146;51.114;5.654;2022-08-03T07:11:20;26.00;93.90
40434;DHT22;26146;51.114;5.654;2022-08-03T07:15:21;25.90;93.40
40434;DHT22;26146;51.114;5.654;2022-08-03T07:19:22;26.10;93.50
40434;DHT22;26146;51.114;5.654;2022-08-03T07:23:23;26.10;93.50
40434;DHT22;26146;51.114;5.654;2022-08-03T07:27:25;26.40;92.80
40434;DHT22;26146;51.114;5.654;2022-08-03T07:31:26;26.30;92.60
40434;DHT22;26146;51.114;5.654;2022-08-03T07:35:38;26.50;92.60
40434;DHT22;26146;51.114;5.654;2022-08-03T07:39:42;26.70;91.90
40434;DHT22;26146;51.114;5.654;2022-08-03T07:43:44;26.90;91.40
40434;DHT22;26146;51.114;5.654;2022-08-03T07:47:45;27.10;91.50
40434;DHT22;26146;51.114;5.654;2022-08-03T07:51:46;27.20;91.40
40434;DHT22;26146;51.114;5.654;2022-08-03T07:56:06;27.40;90.80
40434;DHT22;26146;51.114;5.654;2022-08-03T08:00:13;27.50;90.10
40434;DHT22;26146;51.114;5.654;2022-08-03T08:04:15;27.60;89.80
40434;DHT22;26146;51.114;5.654;2022-08-03T08:08:16;27.60;89.70
40434;DHT22;26146;51.114;5.654;2022-08-03T08:12:17;27.60;89.70
40434;DHT22;26146;51.114;5.654;2022-08-03T08:16:18;27.80;89.50
40434;DHT22;26146;51.114;5.654;2022-08-03T08:20:25;27.80;88.90
40434;DHT22;26146;51.114;5.654;2022-08-03T08:24:26;27.80;88.40
40434;DHT22;26146;51.114;5.654;2022-08-03T08:28:29;27.70;88.80
40434;DHT22;26146;51.114;5.654;2022-08-03T08:32:30;27.70;89.00
40434;DHT22;26146;51.114;5.654;2022-08-03T08:36:32;27.90;89.70
40434;DHT22;26146;51.114;5.654;2022-08-03T08:40:34;28.10;89.10
40434;DHT22;26146;51.114;5.654;2022-08-03T08:44:35;28.30;88.70
40434;DHT22;26146;51.114;5.654;2022-08-03T08:48:42;28.20;88.90
40434;DHT22;26146;51.114;5.654;2022-08-03T08:52:46;28.20;88.30
40434;DHT22;26146;51.114;5.654;2022-08-03T08:56:49;28.30;88.70
40434;DHT22;26146;51.114;5.654;2022-08-03T09:00:51;28.50;88.40
40434;DHT22;26146;51.114;5.654;2022-08-03T09:04:52;28.60;87.60
40434;DHT22;26146;51.114;5.654;2022-08-03T09:08:53;28.60;88.20
40434;DHT22;26146;51.114;5.654;2022-08-03T09:12:54;28.60;86.50
40434;DHT22;26146;51.114;5.654;2022-08-03T09:17:00;28.70;88.00
40434;DHT22;26146;51.114;5.654;2022-08-03T09:21:21;28.80;86.60
40434;DHT22;26146;51.114;5.654;2022-08-03T09:25:42;29.00;86.80
40434;DHT22;26146;51.114;5.654;2022-08-03T09:29:47;29.10;84.70
40434;DHT22;26146;51.114;5.654;2022-08-03T09:33:48;29.30;83.60
40434;DHT22;26146;51.114;5.654;2022-08-03T09:38:08;29.20;84.40
40434;DHT22;26146;51.114;5.654;2022-08-03T09:42:14;29.10;84.70
40434;DHT22;26146;51.114;5.654;2022-08-03T09:46:17;29.20;84.80
40434;DHT22;26146;51.114;5.654;2022-08-03T09:50:18;29.30;83.50
40434;DHT22;26146;51.114;5.654;2022-08-03T09:54:29;29.60;83.60
40434;DHT22;26146;51.114;5.654;2022-08-03T09:58:30;30.00;80.30
40434;DHT22;26146;51.114;5.654;2022-08-03T10:02:32;30.10;78.80
40434;DHT22;26146;51.114;5.654;2022-08-03T10:06:33;30.20;80.40
40434;DHT22;26146;51.114;5.654;2022-08-03T10:10:42;30.40;79.70
40434;DHT22;26146;51.114;5.654;2022-08-03T10:14:44;30.60;79.90
40434;DHT22;26146;51.114;5.654;2022-08-03T10:18:46;30.60;79.90
40434;DHT22;26146;51.114;5.654;2022-08-03T10:22:47;30.50;79.40
40434;DHT22;26146;51.114;5.654;2022-08-03T10:26:49;30.50;78.60
40434;DHT22;26146;51.114;5.654;2022-08-03T10:30:52;30.40;79.40
40434;DHT22;26146;51.114;5.654;2022-08-03T10:34:58;30.40;78.80
40434;DHT22;26146;51.114;5.654;2022-08-03T10:39:05;30.40;78.80
40434;DHT22;26146;51.114;5.654;2022-08-03T10:43:17;30.60;79.50
40434;DHT22;26146;51.114;5.654;2022-08-03T10:47:21;30.90;78.10
40434;DHT22;26146;51.114;5.654;2022-08-03T10:51:22;30.80;78.80
40434;DHT22;26146;51.114;5.654;2022-08-03T11:12:29;30.40;79.20
40434;DHT22;26146;51.114;5.654;2022-08-03T11:16:34;30.40;79.00
40434;DHT22;26146;51.114;5.654;2022-08-03T11:33:40;31.00;78.20
40434;DHT22;26146;51.114;5.654;2022-08-03T11:41:58;31.20;78.20
40434;DHT22;26146;51.114;5.654;2022-08-03T11:45:59;31.40;78.30
40434;DHT22;26146;51.114;5.654;2022-08-03T11:50:01;31.70;77.30
40434;DHT22;26146;51.114;5.654;2022-08-03T11:54:04;31.70;76.60
40434;DHT22;26146;51.114;5.654;2022-08-03T11:58:05;31.80;75.80
40434;DHT22;26146;51.114;5.654;2022-08-03T12:02:11;31.80;75.60
40434;DHT22;26146;51.114;5.654;2022-08-03T12:06:14;31.70;76.80
40434;DHT22;26146;51.114;5.654;2022-08-03T12:10:15;31.70;76.40
40434;DHT22;26146;51.114;5.654;2022-08-03T12:14:18;31.70;76.80
40434;DHT22;26146;51.114;5.654;2022-08-03T12:18:20;31.90;75.90
40434;DHT22;26146;51.114;5.654;2022-08-03T12:22:32;32.30;75.90
40434;DHT22;26146;51.114;5.654;2022-08-03T12:26:47;32.50;74.60
40434;DHT22;26146;51.114;5.654;2022-08-03T12:30:50;32.30;73.50
40434;DHT22;26146;51.114;5.654;2022-08-03T12:34:52;32.10;75.20
40434;DHT22;26146;51.114;5.654;2022-08-03T12:38:57;32.20;76.20
40434;DHT22;26146;51.114;5.654;2022-08-03T12:42:58;32.30;74.60
40434;DHT22;26146;51.114;5.654;2022-08-03T12:47:00;32.10;76.10
40434;DHT22;26146;51.114;5.654;2022-08-03T12:51:10;32.30;76.50
40434;DHT22;26146;51.114;5.654;2022-08-03T12:55:18;32.80;75.40
40434;DHT22;26146;51.114;5.654;2022-08-03T12:59:23;33.30;74.70
40434;DHT22;26146;51.114;5.654;2022-08-03T13:03:24;33.30;73.70
40434;DHT22;26146;51.114;5.654;2022-08-03T13:07:25;33.40;73.80
40434;DHT22;26146;51.114;5.654;2022-08-03T13:11:27;33.20;73.90
40434;DHT22;26146;51.114;5.654;2022-08-03T13:15:28;33.20;72.90
40434;DHT22;26146;51.114;5.654;2022-08-03T13:19:36;33.20;73.10
40434;DHT22;26146;51.114;5.654;2022-08-03T13:23:37;33.10;73.00
40434;DHT22;26146;51.114;5.654;2022-08-03T13:27:39;33.30;73.00
40434;DHT22;26146;51.114;5.654;2022-08-03T13:31:39;33.30;71.40
40434;DHT22;26146;51.114;5.654;2022-08-03T13:35:40;33.20;72.30
40434;DHT22;26146;51.114;5.654;2022-08-03T13:39:42;33.30;72.90
40434;DHT22;26146;51.114;5.654;2022-08-03T13:43:42;33.20;72.20
40434;DHT22;26146;51.114;5.654;2022-08-03T13:47:43;33.10;72.00
40434;DHT22;26146;51.114;5.654;2022-08-03T13:51:44;33.00;72.60
40434;DHT22;26146;51.114;5.654;2022-08-03T13:55:47;33.00;72.80
40434;DHT22;26146;51.114;5.654;2022-08-03T13:59:48;33.20;72.00
40434;DHT22;26146;51.114;5.654;2022-08-03T14:03:52;33.60;71.80
40434;DHT22;26146;51.114;5.654;2022-08-03T14:07:58;33.80;71.80
40434;DHT22;26146;51.114;5.654;2022-08-03T14:12:00;34.20;70.50
40434;DHT22;26146;51.114;5.654;2022-08-03T14:16:03;34.10;70.80
40434;DHT22;26146;51.114;5.654;2022-08-03T14:20:10;34.30;71.00
40434;DHT22;26146;51.114;5.654;2022-08-03T14:24:12;34.20;70.00
40434;DHT22;26146;51.114;5.654;2022-08-03T14:28:22;34.30;70.40
40434;DHT22;26146;51.114;5.654;2022-08-03T14:32:25;34.60;69.50
40434;DHT22;26146;51.114;5.654;2022-08-03T14:36:27;34.80;69.60
40434;DHT22;26146;51.114;5.654;2022-08-03T14:40:30;34.70;69.20
40434;DHT22;26146;51.114;5.654;2022-08-03T14:44:31;34.30;69.70
40434;DHT22;26146;51.114;5.654;2022-08-03T14:48:32;33.70;70.80
40434;DHT22;26146;51.114;5.654;2022-08-03T14:52:35;33.30;71.40
40434;DHT22;26146;51.114;5.654;2022-08-03T14:56:36;33.60;71.80
40434;DHT22;26146;51.114;5.654;2022-08-03T15:00:37;33.40;71.50
40434;DHT22;26146;51.114;5.654;2022-08-03T15:04:38;33.30;72.00
40434;DHT22;26146;51.114;5.654;2022-08-03T15:08:39;33.30;72.30
40434;DHT22;26146;51.114;5.654;2022-08-03T15:12:43;33.50;70.80
40434;DHT22;26146;51.114;5.654;2022-08-03T15:16:43;33.60;70.60
40434;DHT22;26146;51.114;5.654;2022-08-03T15:20:44;33.70;70.70
40434;DHT22;26146;51.114;5.654;2022-08-03T15:24:46;33.80;70.40
40434;DHT22;26146;51.114;5.654;2022-08-03T15:28:46;33.50;70.60
40434;DHT22;26146;51.114;5.654;2022-08-03T15:32:50;33.60;69.80
40434;DHT22;26146;51.114;5.654;2022-08-03T15:36:53;33.70;69.10
40434;DHT22;26146;51.114;5.654;2022-08-03T15:40:54;33.80;68.80
40434;DHT22;26146;51.114;5.654;2022-08-03T15:44:58;33.80;69.80
40434;DHT22;26146;51.114;5.654;2022-08-03T15:49:06;33.80;69.00
40434;DHT22;26146;51.114;5.654;2022-08-03T15:53:50;33.80;68.70
40434;DHT22;26146;51.114;5.654;2022-08-03T15:57:53;33.50;69.10
40434;DHT22;26146;51.114;5.654;2022-08-03T16:01:54;33.60;70.20
40434;DHT22;26146;51.114;5.654;2022-08-03T16:05:56;33.60;69.40
40434;DHT22;26146;51.114;5.654;2022-08-03T16:09:57;33.90;69.60
40434;DHT22;26146;51.114;5.654;2022-08-03T16:13:58;34.20;68.40
40434;DHT22;26146;51.114;5.654;2022-08-03T16:17:59;34.00;66.70
40434;DHT22;26146;51.114;5.654;2022-08-03T16:22:02;33.80;67.70
40434;DHT22;26146;51.114;5.654;2022-08-03T16:26:10;33.70;68.40
40434;DHT22;26146;51.114;5.654;2022-08-03T16:30:13;33.70;67.90
40434;DHT22;26146;51.114;5.654;2022-08-03T16:34:18;33.80;68.50
40434;DHT22;26146;51.114;5.654;2022-08-03T16:38:19;33.80;68.40
40434;DHT22;26146;51.114;5.654;2022-08-03T16:42:20;33.70;68.30
40434;DHT22;26146;51.114;5.654;2022-08-03T16:46:23;33.50;69.20
40434;DHT22;26146;51.114;5.654;2022-08-03T16:50:24;33.30;69.00
40434;DHT22;26146;51.114;5.654;2022-08-03T16:54:25;33.20;68.80
40434;DHT22;26146;51.114;5.654;2022-08-03T16:58:26;33.20;68.40
40434;DHT22;26146;51.114;5.654;2022-08-03T17:02:27;33.10;69.10
40434;DHT22;26146;51.114;5.654;2022-08-03T17:06:28;32.90;68.50
40434;DHT22;26146;51.114;5.654;2022-08-03T17:10:32;33.00;68.70
40434;DHT22;26146;51.114;5.654;2022-08-03T17:14:36;33.10;68.00
40434;DHT22;26146;51.114;5.654;2022-08-03T17:18:39;33.10;68.30
40434;DHT22;26146;51.114;5.654;2022-08-03T17:22:51;33.00;68.40
40434;DHT22;26146;51.114;5.654;2022-08-03T17:26:54;33.10;68.30
40434;DHT22;26146;51.114;5.654;2022-08-03T17:30:55;32.70;68.80
40434;DHT22;26146;51.114;5.654;2022-08-03T17:35:17;32.60;69.40
40434;DHT22;26146;51.114;5.654;2022-08-03T17:39:18;32.60;69.30
40434;DHT22;26146;51.114;5.654;2022-08-03T17:43:24;32.60;69.90
40434;DHT22;26146;51.114;5.654;2022-08-03T17:47:26;32.60;69.70
40434;DHT22;26146;51.114;5.654;2022-08-03T17:51:49;32.50;70.00
40434;DHT22;26146;51.114;5.654;2022-08-03T18:00:12;32.40;69.40
40434;DHT22;26146;51.114;5.654;2022-08-03T18:04:40;32.20;69.10
40434;DHT22;26146;51.114;5.654;2022-08-03T18:08:50;32.20;69.60
40434;DHT22;26146;51.114;5.654;2022-08-03T18:12:59;32.20;70.60
40434;DHT22;26146;51.114;5.654;2022-08-03T18:17:06;32.20;71.70
40434;DHT22;26146;51.114;5.654;2022-08-03T18:21:11;31.90;72.80
40434;DHT22;26146;51.114;5.654;2022-08-03T18:25:13;31.70;73.50
40434;DHT22;26146;51.114;5.654;2022-08-03T18:29:15;31.60;73.80
40434;DHT22;26146;51.114;5.654;2022-08-03T18:33:16;31.50;74.40
40434;DHT22;26146;51.114;5.654;2022-08-03T18:37:18;31.40;74.60
40434;DHT22;26146;51.114;5.654;2022-08-03T18:41:21;31.30;74.90
40434;DHT22;26146;51.114;5.654;2022-08-03T18:45:22;31.10;75.50
40434;DHT22;26146;51.114;5.654;2022-08-03T18:53:57;30.80;76.40
40434;DHT22;26146;51.114;5.654;2022-08-03T19:02:46;30.70;77.80
40434;DHT22;26146;51.114;5.654;2022-08-03T19:06:57;30.50;77.90
40434;DHT22;26146;51.114;5.654;2022-08-03T19:11:03;30.30;79.20
40434;DHT22;26146;51.114;5.654;2022-08-03T19:15:09;30.20;80.70
40434;DHT22;26146;51.114;5.654;2022-08-03T19:19:11;30.00;80.80
40434;DHT22;26146;51.114;5.654;2022-08-03T19:23:13;29.70;82.10
40434;DHT22;26146;51.114;5.654;2022-08-03T19:27:14;29.60;83.40
40434;DHT22;26146;51.114;5.654;2022-08-03T19:31:15;29.30;83.80
40434;DHT22;26146;51.114;5.654;2022-08-03T19:35:16;29.20;84.10
40434;DHT22;26146;51.114;5.654;2022-08-03T19:39:18;29.00;84.40
40434;DHT22;26146;51.114;5.654;2022-08-03T19:43:35;28.80;85.50
40434;DHT22;26146;51.114;5.654;2022-08-03T19:47:44;28.60;85.80
40434;DHT22;26146;51.114;5.654;2022-08-03T19:51:50;28.40;86.20
40434;DHT22;26146;51.114;5.654;2022-08-03T19:55:53;28.30;86.70
40434;DHT22;26146;51.114;5.654;2022-08-03T19:59:57;28.20;87.10
40434;DHT22;26146;51.114;5.654;2022-08-03T20:03:59;28.10;87.50
40434;DHT22;26146;51.114;5.654;2022-08-03T20:08:02;27.90;87.60
40434;DHT22;26146;51.114;5.654;2022-08-03T20:12:04;27.80;87.70
40434;DHT22;26146;51.114;5.654;2022-08-03T20:16:05;27.70;87.50
40434;DHT22;26146;51.114;5.654;2022-08-03T20:20:06;27.60;88.30
40434;DHT22;26146;51.114;5.654;2022-08-03T20:24:12;27.50;88.50
40434;DHT22;26146;51.114;5.654;2022-08-03T20:28:20;27.50;89.10
40434;DHT22;26146;51.114;5.654;2022-08-03T20:32:23;27.40;88.40
40434;DHT22;26146;51.114;5.654;2022-08-03T20:36:26;27.40;89.20
40434;DHT22;26146;51.114;5.654;2022-08-03T20:40:27;27.30;89.70
40434;DHT22;26146;51.114;5.654;2022-08-03T20:44:29;27.20;90.00
40434;DHT22;26146;51.114;5.654;2022-08-03T20:48:31;27.10;90.20
40434;DHT22;26146;51.114;5.654;2022-08-03T20:52:34;27.00;90.30
40434;DHT22;26146;51.114;5.654;2022-08-03T20:56:37;26.90;90.30
40434;DHT22;26146;51.114;5.654;2022-08-03T21:00:40;26.80;90.60
40434;DHT22;26146;51.114;5.654;2022-08-03T21:04:41;26.70;90.80
40434;DHT22;26146;51.114;5.654;2022-08-03T21:08:46;26.70;91.10
40434;DHT22;26146;51.114;5.654;2022-08-03T21:13:07;26.50;91.10
40434;DHT22;26146;51.114;5.654;2022-08-03T21:17:11;26.40;91.30
40434;DHT22;26146;51.114;5.654;2022-08-03T21:21:15;26.20;91.50
40434;DHT22;26146;51.114;5.654;2022-08-03T21:25:25;26.20;91.70
40434;DHT22;26146;51.114;5.654;2022-08-03T21:29:27;26.20;91.80
40434;DHT22;26146;51.114;5.654;2022-08-03T21:33:30;26.20;92.10
40434;DHT22;26146;51.114;5.654;2022-08-03T21:37:32;26.10;92.10
40434;DHT22;26146;51.114;5.654;2022-08-03T21:41:33;26.00;92.20
40434;DHT22;26146;51.114;5.654;2022-08-03T21:45:43;26.00;92.30
40434;DHT22;26146;51.114;5.654;2022-08-03T21:49:47;25.80;92.40
40434;DHT22;26146;51.114;5.654;2022-08-03T21:53:52;25.80;92.60
40434;DHT22;26146;51.114;5.654;2022-08-03T21:57:55;25.70;92.70
40434;DHT22;26146;51.114;5.654;2022-08-03T22:01:59;25.70;92.70
40434;DHT22;26146;51.114;5.654;2022-08-03T22:06:00;25.80;92.40
40434;DHT22;26146;51.114;5.654;2022-08-03T22:10:03;25.80;92.40
40434;DHT22;26146;51.114;5.654;2022-08-03T22:14:04;25.60;92.60
40434;DHT22;26146;51.114;5.654;2022-08-03T22:18:05;25.60;92.70
40434;DHT22;26146;51.114;5.654;2022-08-03T22:22:07;25.60;92.90
40434;DHT22;26146;51.114;5.654;2022-08-03T22:26:22;25.50;93.00
40434;DHT22;26146;51.114;5.654;2022-08-03T22:30:26;25.50;93.10
40434;DHT22;26146;51.114;5.654;2022-08-03T22:34:27;25.40;93.20
40434;DHT22;26146;51.114;5.654;2022-08-03T22:38:29;25.40;93.40
40434;DHT22;26146;51.114;5.654;2022-08-03T22:42:34;25.30;93.50
40434;DHT22;26146;51.114;5.654;2022-08-03T22:46:36;25.30;93.60
40434;DHT22;26146;51.114;5.654;2022-08-03T22:50:38;25.30;93.70
40434;DHT22;26146;51.114;5.654;2022-08-03T22:54:40;25.30;93.70
40434;DHT22;26146;51.114;5.654;2022-08-03T22:58:41;25.30;93.70
40434;DHT22;26146;51.114;5.654;2022-08-03T23:02:44;25.40;93.30
40434;DHT22;26146;51.114;5.654;2022-08-03T23:06:47;25.20;93.30
40434;DHT22;26146;51.114;5.654;2022-08-03T23:10:51;25.30;93.20
40434;DHT22;26146;51.114;5.654;2022-08-03T23:14:54;25.20;93.20
40434;DHT22;26146;51.114;5.654;2022-08-03T23:18:57;25.20;93.10
40434;DHT22;26146;51.114;5.654;2022-08-03T23:22:59;25.30;93.00
40434;DHT22;26146;51.114;5.654;2022-08-03T23:27:05;25.40;92.90
40434;DHT22;26146;51.114;5.654;2022-08-03T23:31:07;25.40;92.70
40434;DHT22;26146;51.114;5.654;2022-08-03T23:35:08;25.30;92.90
40434;DHT22;26146;51.114;5.654;2022-08-03T23:39:28;25.20;93.00
40434;DHT22;26146;51.114;5.654;2022-08-03T23:43:37;25.20;93.00
40434;DHT22;26146;51.114;5.654;2022-08-03T23:47:42;25.20;92.90
40434;DHT22;26146;51.114;5.654;2022-08-03T23:56:17;25.10;93.40
